createdAt,value
2018-01-01T00:00:38.727Z,85.75
2018-01-01T00:01:38.722Z,86.32
2018-01-01T00:02:38.719Z,86.99
2018-01-01T00:03:38.716Z,88.04
2018-01-01T00:04:38.711Z,87.65
2018-01-01T00:05:38.708Z,88.13
2018-01-01T00:06:38.707Z,88.51
2018-01-01T00:07:38.702Z,87.85
2018-01-01T00:08:38.698Z,87.75
2018-01-01T00:09:38.694Z,86.99
2018-01-01T00:10:38.691Z,86.99
2018-01-01T00:11:38.688Z,86.90
2018-01-01T00:12:38.685Z,88.32
2018-01-01T00:13:38.681Z,88.13
2018-01-01T00:14:38.678Z,88.32
2018-01-01T00:15:38.674Z,88.32
2018-01-01T00:16:38.670Z,89.27
2018-01-01T00:17:38.667Z,88.32
2018-01-01T00:18:38.663Z,89.37
2018-01-01T00:19:38.660Z,89.94
2018-01-01T00:20:38.659Z,89.84
2018-01-01T00:21:38.652Z,90.70
2018-01-01T00:22:38.650Z,91.08
2018-01-01T00:23:38.648Z,90.42
2018-01-01T00:24:38.642Z,90.70
2018-01-01T00:25:38.639Z,89.94
2018-01-01T00:26:38.635Z,89.47
2018-01-01T00:27:38.632Z,89.65
2018-01-01T00:28:38.627Z,89.56
2018-01-01T00:29:38.625Z,88.51
2018-01-01T00:30:38.623Z,89.65
2018-01-01T00:31:38.618Z,90.28
2018-01-01T00:32:38.616Z,89.32
2018-01-01T00:33:38.610Z,89.23
2018-01-01T00:34:38.607Z,90.66
2018-01-01T00:35:38.605Z,90.47
2018-01-01T00:36:38.599Z,89.14
2018-01-01T00:37:38.596Z,88.66
2018-01-01T00:38:38.592Z,89.42
2018-01-01T00:39:38.589Z,90.18
2018-01-01T00:40:38.585Z,90.56
2018-01-01T00:41:38.581Z,90.66
2018-01-01T00:42:38.578Z,89.99
2018-01-01T00:43:38.574Z,90.28
2018-01-01T00:44:38.570Z,89.70
2018-01-01T00:45:38.566Z,91.13
2018-01-01T00:46:38.563Z,90.08
2018-01-01T00:47:38.565Z,89.80
2018-01-01T00:48:38.556Z,89.51
2018-01-01T00:49:38.552Z,90.08
2018-01-01T00:50:38.547Z,90.84
2018-01-01T00:51:38.545Z,89.51
2018-01-01T00:52:38.541Z,91.22
2018-01-01T00:53:38.537Z,91.89
2018-01-01T00:54:38.533Z,91.22
2018-01-01T00:55:38.530Z,91.03
2018-01-01T00:56:38.527Z,91.22
2018-01-01T00:57:38.523Z,90.94
2018-01-01T00:58:38.518Z,90.66
2018-01-01T00:59:38.515Z,91.42
2018-01-01T01:00:38.510Z,91.80
2018-01-01T01:01:38.506Z,90.94
2018-01-01T01:02:38.502Z,92.08
2018-01-01T01:03:38.500Z,91.70
2018-01-01T01:04:38.493Z,92.27
2018-01-01T01:05:38.489Z,91.22
2018-01-01T01:06:38.486Z,91.03
2018-01-01T01:07:38.483Z,89.99
2018-01-01T01:08:38.478Z,91.32
2018-01-01T01:09:38.480Z,91.80
2018-01-01T01:10:38.476Z,93.32
2018-01-01T01:11:38.469Z,93.13
2018-01-01T01:12:38.462Z,93.89
2018-01-01T01:13:38.457Z,93.51
2018-01-01T01:14:38.455Z,96.94
2018-01-01T01:15:38.451Z,96.46
2018-01-01T01:16:38.446Z,96.17
2018-01-01T01:17:38.443Z,94.84
2018-01-01T01:18:38.438Z,97.79
2018-01-01T01:19:38.434Z,96.84
2018-01-01T01:20:38.432Z,96.84
2018-01-01T01:21:38.427Z,97.13
2018-01-01T01:22:38.422Z,97.31
2018-01-01T01:23:38.419Z,97.50
2018-01-01T01:24:38.414Z,97.79
2018-01-01T01:25:38.414Z,96.36
2018-01-01T01:26:38.406Z,97.13
2018-01-01T01:27:38.402Z,98.08
2018-01-01T01:28:38.398Z,96.55
2018-01-01T01:29:38.394Z,97.60
2018-01-01T01:30:38.393Z,97.41
2018-01-01T01:31:38.387Z,96.84
2018-01-01T01:32:38.381Z,96.55
2018-01-01T01:33:38.377Z,97.22
2018-01-01T01:34:38.374Z,96.94
2018-01-01T01:35:38.371Z,96.26
2018-01-01T01:36:38.366Z,95.79
2018-01-01T01:37:38.361Z,96.74
2018-01-01T01:38:38.357Z,98.65
2018-01-01T01:39:38.354Z,97.60
2018-01-01T01:40:38.349Z,99.02
2018-01-01T01:41:38.345Z,97.88
2018-01-01T01:42:38.341Z,98.65
2018-01-01T01:43:38.337Z,98.36
2018-01-01T01:44:38.332Z,99.99
2018-01-01T01:45:38.329Z,99.69
2018-01-01T01:46:38.325Z,99.98
2018-01-01T01:47:38.323Z,99.69
2018-01-01T01:48:38.316Z,99.88
2018-01-01T01:49:38.313Z,99.69
2018-01-01T01:50:38.309Z,99.79
2018-01-01T01:51:38.304Z,99.99
2018-01-01T01:52:38.301Z,99.79
2018-01-01T01:53:38.296Z,99.79
2018-01-01T01:54:38.293Z,99.99
2018-01-01T01:55:38.288Z,99.99
2018-01-01T01:56:38.284Z,99.60
2018-01-01T01:57:38.280Z,99.22
2018-01-01T01:58:38.276Z,99.79
2018-01-01T01:59:38.273Z,99.60
2018-01-01T02:00:38.267Z,98.93
2018-01-01T02:01:38.265Z,98.55
2018-01-01T02:02:38.267Z,99.02
2018-01-01T02:03:38.256Z,98.65
2018-01-01T02:04:38.251Z,97.50
2018-01-01T02:05:38.248Z,98.65
2018-01-01T02:06:38.246Z,98.65
2018-01-01T02:07:38.240Z,98.55
2018-01-01T02:08:38.236Z,97.69
2018-01-01T02:09:38.232Z,97.88
2018-01-01T02:10:38.227Z,98.83
2018-01-01T02:11:38.224Z,98.93
2018-01-01T02:12:38.220Z,99.60
2018-01-01T02:13:38.216Z,97.79
2018-01-01T02:14:38.212Z,98.55
2018-01-01T02:15:38.208Z,97.98
2018-01-01T02:16:38.204Z,99.79
2018-01-01T02:17:38.199Z,99.88
2018-01-01T02:18:38.200Z,99.22
2018-01-01T02:19:38.192Z,98.83
2018-01-01T02:20:38.187Z,99.22
2018-01-01T02:21:38.184Z,98.83
2018-01-01T02:22:38.179Z,99.60
2018-01-01T02:23:38.175Z,99.02
2018-01-01T02:24:38.171Z,98.65
2018-01-01T02:25:38.167Z,99.79
2018-01-01T02:26:38.163Z,99.69
2018-01-01T02:27:38.160Z,99.02
2018-01-01T02:28:38.157Z,99.79
2018-01-01T02:29:38.150Z,99.79
2018-01-01T02:30:38.147Z,99.22
2018-01-01T02:31:38.143Z,99.60
2018-01-01T02:32:38.139Z,99.79
2018-01-01T02:33:38.135Z,99.99
2018-01-01T02:34:38.131Z,99.99
2018-01-01T02:35:38.128Z,99.60
2018-01-01T02:36:38.121Z,99.22
2018-01-01T02:37:38.119Z,99.79
2018-01-01T02:38:38.115Z,99.60
2018-01-01T02:39:38.111Z,99.99
2018-01-01T02:40:38.106Z,99.98
2018-01-01T02:41:38.102Z,99.99
2018-01-01T02:42:38.098Z,99.98
2018-01-01T02:43:38.094Z,99.98
2018-01-01T02:44:38.089Z,99.79
2018-01-01T02:45:38.085Z,99.88
2018-01-01T02:46:38.084Z,99.74
2018-01-01T02:47:38.077Z,99.79
2018-01-01T02:48:38.073Z,99.99
2018-01-01T02:49:38.067Z,99.98
2018-01-01T02:50:38.064Z,99.99
2018-01-01T02:51:38.061Z,99.98
2018-01-01T02:52:38.056Z,99.99
2018-01-01T02:53:38.054Z,99.41
2018-01-01T02:54:38.047Z,99.99
2018-01-01T02:55:38.043Z,99.41
2018-01-01T02:56:38.038Z,99.79
2018-01-01T02:57:38.034Z,99.98
2018-01-01T02:58:38.030Z,99.98
2018-01-01T02:59:38.028Z,99.98
2018-01-01T03:00:38.022Z,99.41
2018-01-01T03:01:38.017Z,99.99
2018-01-01T03:02:38.013Z,99.79
2018-01-01T03:03:38.009Z,99.99
2018-01-01T03:04:38.005Z,99.99
2018-01-01T03:05:38.001Z,99.99
2018-01-01T03:06:37.995Z,99.99
2018-01-01T03:07:37.992Z,99.98
2018-01-01T03:08:37.987Z,99.79
2018-01-01T03:09:37.983Z,99.99
2018-01-01T03:10:37.978Z,99.69
2018-01-01T03:11:37.975Z,99.36
2018-01-01T03:12:37.970Z,99.55
2018-01-01T03:13:37.965Z,99.26
2018-01-01T03:14:37.962Z,99.99
2018-01-01T03:15:37.958Z,99.99
2018-01-01T03:16:37.953Z,99.99
2018-01-01T03:17:37.949Z,99.88
2018-01-01T03:18:37.946Z,99.99
2018-01-01T03:19:37.940Z,99.88
2018-01-01T03:20:37.935Z,99.99
2018-01-01T03:21:37.934Z,99.55
2018-01-01T03:22:37.927Z,99.16
2018-01-01T03:23:37.923Z,99.99
2018-01-01T03:24:37.918Z,99.16
2018-01-01T03:25:37.914Z,99.36
2018-01-01T03:26:37.910Z,99.55
2018-01-01T03:27:37.907Z,99.07
2018-01-01T03:28:37.901Z,99.26
2018-01-01T03:29:37.897Z,99.45
2018-01-01T03:30:37.893Z,99.55
2018-01-01T03:31:37.887Z,99.07
2018-01-01T03:32:37.886Z,99.07
2018-01-01T03:33:37.880Z,99.07
2018-01-01T03:34:37.876Z,98.60
2018-01-01T03:35:37.871Z,99.84
2018-01-01T03:36:37.866Z,98.50
2018-01-01T03:37:37.861Z,98.60
2018-01-01T03:38:37.858Z,98.03
2018-01-01T03:39:37.854Z,97.83
2018-01-01T03:40:37.849Z,97.36
2018-01-01T03:41:37.844Z,98.03
2018-01-01T03:42:37.841Z,97.27
2018-01-01T03:43:37.836Z,96.98
2018-01-01T03:44:37.830Z,98.41
2018-01-01T03:45:37.827Z,98.97
2018-01-01T03:46:37.823Z,97.93
2018-01-01T03:47:37.817Z,97.36
2018-01-01T03:48:37.812Z,97.93
2018-01-01T03:49:37.808Z,97.83
2018-01-01T03:50:37.804Z,98.03
2018-01-01T03:51:37.800Z,97.93
2018-01-01T03:52:37.797Z,98.60
2018-01-01T03:53:37.790Z,97.83
2018-01-01T03:54:37.785Z,97.64
2018-01-01T03:55:37.782Z,97.74
2018-01-01T03:56:37.775Z,98.12
2018-01-01T03:57:37.771Z,97.83
2018-01-01T03:58:37.767Z,98.79
2018-01-01T03:59:37.764Z,98.97
2018-01-01T04:00:37.757Z,98.97
2018-01-01T04:01:37.752Z,98.03
2018-01-01T04:02:37.748Z,99.07
2018-01-01T04:03:37.744Z,97.83
2018-01-01T04:04:37.739Z,98.41
2018-01-01T04:05:37.735Z,96.89
2018-01-01T04:06:37.736Z,97.08
2018-01-01T04:07:37.725Z,97.17
2018-01-01T04:08:37.721Z,96.60
2018-01-01T04:09:37.716Z,96.65
2018-01-01T04:10:37.711Z,96.45
2018-01-01T04:11:37.707Z,97.88
2018-01-01T04:12:37.701Z,97.45
2018-01-01T04:13:37.696Z,96.50
2018-01-01T04:14:37.693Z,97.93
2018-01-01T04:15:37.688Z,98.41
2018-01-01T04:16:37.683Z,98.97
2018-01-01T04:17:37.679Z,98.79
2018-01-01T04:18:37.674Z,99.55
2018-01-01T04:19:37.669Z,98.22
2018-01-01T04:20:37.665Z,99.07
2018-01-01T04:21:37.661Z,98.69
2018-01-01T04:22:37.655Z,98.03
2018-01-01T04:23:37.653Z,98.17
2018-01-01T04:24:37.647Z,96.98
2018-01-01T04:25:37.641Z,97.88
2018-01-01T04:26:37.638Z,98.45
2018-01-01T04:27:37.632Z,97.41
2018-01-01T04:28:37.626Z,97.31
2018-01-01T04:29:37.622Z,98.36
2018-01-01T04:30:37.618Z,97.88
2018-01-01T04:31:37.614Z,98.74
2018-01-01T04:32:37.607Z,97.08
2018-01-01T04:33:37.603Z,98.55
2018-01-01T04:34:37.599Z,97.88
2018-01-01T04:35:37.594Z,98.55
2018-01-01T04:36:37.588Z,97.74
2018-01-01T04:37:37.584Z,98.12
2018-01-01T04:38:37.580Z,98.41
2018-01-01T04:39:37.575Z,97.41
2018-01-01T04:40:37.570Z,97.36
2018-01-01T04:41:37.565Z,96.98
2018-01-01T04:42:37.560Z,97.27
2018-01-01T04:43:37.556Z,96.45
2018-01-01T04:44:37.554Z,96.45
2018-01-01T04:45:37.546Z,97.22
2018-01-01T04:46:37.541Z,96.74
2018-01-01T04:47:37.537Z,96.36
2018-01-01T04:48:37.532Z,96.36
2018-01-01T04:49:37.528Z,96.74
2018-01-01T04:50:37.523Z,96.55
2018-01-01T04:51:37.518Z,97.31
2018-01-01T04:52:37.513Z,97.41
2018-01-01T04:53:37.508Z,97.41
2018-01-01T04:54:37.504Z,96.74
2018-01-01T04:55:37.497Z,96.45
2018-01-01T04:56:37.493Z,96.93
2018-01-01T04:57:37.489Z,95.60
2018-01-01T04:58:37.484Z,96.17
2018-01-01T04:59:37.479Z,95.98
2018-01-01T05:00:37.476Z,95.79
2018-01-01T05:01:37.469Z,96.26
2018-01-01T05:02:37.465Z,95.22
2018-01-01T05:03:37.460Z,95.89
2018-01-01T05:04:37.455Z,94.93
2018-01-01T05:05:37.450Z,94.84
2018-01-01T05:06:37.446Z,93.99
2018-01-01T05:07:37.441Z,95.32
2018-01-01T05:08:37.441Z,94.65
2018-01-01T05:09:37.430Z,94.56
2018-01-01T05:10:37.426Z,94.56
2018-01-01T05:11:37.421Z,94.08
2018-01-01T05:12:37.415Z,94.84
2018-01-01T05:13:37.411Z,91.33
2018-01-01T05:14:37.406Z,90.94
2018-01-01T05:15:37.401Z,90.75
2018-01-01T05:16:37.396Z,90.00
2018-01-01T05:17:37.391Z,90.37
2018-01-01T05:18:37.387Z,90.94
2018-01-01T05:19:37.382Z,89.47
2018-01-01T05:20:37.380Z,89.09
2018-01-01T05:21:37.371Z,88.47
2018-01-01T05:22:37.367Z,86.82
2018-01-01T05:23:37.361Z,85.77
2018-01-01T05:24:37.356Z,85.39
2018-01-01T05:25:37.352Z,83.30
2018-01-01T05:26:37.347Z,83.97
2018-01-01T05:27:37.342Z,83.78
2018-01-01T05:28:37.338Z,84.82
2018-01-01T05:29:37.333Z,83.59
2018-01-01T05:30:37.327Z,83.01
2018-01-01T05:31:37.322Z,81.68
2018-01-01T05:32:37.317Z,85.86
2018-01-01T05:33:37.312Z,85.96
2018-01-01T05:34:37.307Z,85.20
2018-01-01T05:35:37.302Z,85.86
2018-01-01T05:36:37.297Z,82.64
2018-01-01T05:37:37.293Z,82.16
2018-01-01T05:38:37.287Z,82.92
2018-01-01T05:39:37.283Z,81.02
2018-01-01T05:40:37.277Z,81.02
2018-01-01T05:41:37.271Z,79.88
2018-01-01T05:42:37.266Z,80.35
2018-01-01T05:43:37.262Z,79.22
2018-01-01T05:44:37.256Z,79.31
2018-01-01T05:45:37.251Z,79.88
2018-01-01T05:46:37.247Z,80.26
2018-01-01T05:47:37.242Z,80.64
2018-01-01T05:48:37.236Z,80.55
2018-01-01T05:49:37.230Z,79.03
2018-01-01T05:50:37.226Z,78.64
2018-01-01T05:51:37.221Z,78.55
2018-01-01T05:52:37.214Z,80.35
2018-01-01T05:53:37.209Z,82.07
2018-01-01T05:54:37.205Z,82.35
2018-01-01T05:55:37.200Z,82.45
2018-01-01T05:56:37.194Z,81.97
2018-01-01T05:57:37.190Z,80.26
2018-01-01T05:58:37.184Z,79.60
2018-01-01T05:59:37.180Z,78.27
2018-01-01T06:00:37.173Z,78.17
2018-01-01T06:01:37.169Z,77.98
2018-01-01T06:02:37.163Z,78.08
2018-01-01T06:03:37.158Z,80.93
2018-01-01T06:04:37.152Z,82.07
2018-01-01T06:05:37.147Z,82.03
2018-01-01T06:06:37.143Z,79.94
2018-01-01T06:07:37.137Z,79.94
2018-01-01T06:08:37.131Z,78.99
2018-01-01T06:09:37.127Z,77.09
2018-01-01T06:10:37.122Z,78.80
2018-01-01T06:11:37.118Z,78.45
2018-01-01T06:12:37.112Z,78.08
2018-01-01T06:13:37.109Z,78.23
2018-01-01T06:14:37.100Z,79.41
2018-01-01T06:15:37.095Z,77.98
2018-01-01T06:16:37.089Z,77.41
2018-01-01T06:17:37.085Z,76.56
2018-01-01T06:18:37.078Z,77.41
2018-01-01T06:19:37.073Z,78.08
2018-01-01T06:20:37.067Z,78.08
2018-01-01T06:21:37.063Z,78.45
2018-01-01T06:22:37.058Z,77.98
2018-01-01T06:23:37.052Z,77.70
2018-01-01T06:24:37.047Z,78.45
2018-01-01T06:25:37.042Z,77.51
2018-01-01T06:26:37.037Z,77.79
2018-01-01T06:27:37.033Z,78.45
2018-01-01T06:28:37.024Z,83.30
2018-01-01T06:29:37.019Z,82.16
2018-01-01T06:30:37.015Z,85.01
2018-01-01T06:31:37.009Z,85.68
2018-01-01T06:32:37.004Z,85.68
2018-01-01T06:33:36.998Z,85.30
2018-01-01T06:34:36.994Z,87.10
2018-01-01T06:35:36.988Z,86.24
2018-01-01T06:36:36.983Z,87.19
2018-01-01T06:37:36.977Z,89.76
2018-01-01T06:38:36.973Z,89.19
2018-01-01T06:39:36.972Z,89.28
2018-01-01T06:40:36.961Z,89.19
2018-01-01T06:41:36.956Z,88.05
2018-01-01T06:42:36.967Z,87.19
2018-01-01T06:43:36.947Z,87.76
2018-01-01T06:44:36.940Z,86.72
2018-01-01T06:45:36.935Z,87.01
2018-01-01T06:46:36.931Z,90.90
2018-01-01T06:47:36.925Z,89.67
2018-01-01T06:48:36.921Z,90.90
2018-01-01T06:49:36.913Z,91.89
2018-01-01T06:50:36.909Z,91.04
2018-01-01T06:51:36.904Z,91.71
2018-01-01T06:52:36.898Z,91.89
2018-01-01T06:53:36.895Z,91.04
2018-01-01T06:54:36.888Z,97.17
2018-01-01T06:55:36.884Z,97.45
2018-01-01T06:56:36.877Z,96.93
2018-01-01T06:57:36.928Z,99.77
2018-01-01T06:58:36.868Z,96.36
2018-01-01T06:59:36.862Z,93.94
2018-01-01T07:00:36.857Z,91.56
2018-01-01T07:01:36.852Z,88.48
2018-01-01T07:02:36.846Z,88.01
2018-01-01T07:03:36.841Z,85.97
2018-01-01T07:04:36.835Z,83.89
2018-01-01T07:05:36.829Z,82.28
2018-01-01T07:06:36.824Z,82.28
2018-01-01T07:07:36.819Z,82.47
2018-01-01T07:08:36.812Z,83.42
2018-01-01T07:09:36.807Z,83.04
2018-01-01T07:10:36.802Z,83.32
2018-01-01T07:11:36.796Z,83.04
2018-01-01T07:12:36.790Z,82.37
2018-01-01T07:13:36.783Z,81.90
2018-01-01T07:14:36.777Z,81.05
2018-01-01T07:15:36.772Z,81.37
2018-01-01T07:16:36.769Z,80.99
2018-01-01T07:17:36.759Z,79.95
2018-01-01T07:18:36.753Z,80.29
2018-01-01T07:19:36.748Z,79.25
2018-01-01T07:20:36.740Z,79.00
2018-01-01T07:21:36.758Z,79.38
2018-01-01T07:22:36.729Z,78.72
2018-01-01T07:23:36.722Z,77.86
2018-01-01T07:24:36.715Z,76.54
2018-01-01T07:25:36.708Z,76.44
2018-01-01T07:26:36.702Z,77.67
2018-01-01T07:27:36.697Z,77.11
2018-01-01T07:28:36.689Z,78.38
2018-01-01T07:29:36.684Z,79.71
2018-01-01T07:30:36.678Z,84.17
2018-01-01T07:31:36.672Z,82.93
2018-01-01T07:32:36.667Z,83.22
2018-01-01T07:33:36.659Z,83.12
2018-01-01T07:34:36.653Z,82.93
2018-01-01T07:35:36.648Z,83.31
2018-01-01T07:36:36.640Z,84.17
2018-01-01T07:37:36.635Z,83.50
2018-01-01T07:38:36.629Z,83.50
2018-01-01T07:39:36.623Z,82.65
2018-01-01T07:40:36.616Z,82.74
2018-01-01T07:41:36.610Z,82.17
2018-01-01T07:42:36.605Z,81.70
2018-01-01T07:43:36.600Z,80.65
2018-01-01T07:44:36.594Z,80.56
2018-01-01T07:45:36.587Z,80.03
2018-01-01T07:46:36.582Z,81.55
2018-01-01T07:47:36.574Z,83.83
2018-01-01T07:48:36.569Z,86.39
2018-01-01T07:49:36.563Z,88.39
2018-01-01T07:50:36.558Z,89.90
2018-01-01T07:51:36.552Z,89.05
2018-01-01T07:52:36.544Z,88.86
2018-01-01T07:53:36.539Z,89.05
2018-01-01T07:54:36.533Z,88.01
2018-01-01T07:55:36.528Z,90.00
2018-01-01T07:56:36.521Z,88.10
2018-01-01T07:57:36.516Z,89.05
2018-01-01T07:58:36.510Z,89.81
2018-01-01T07:59:36.505Z,89.72
2018-01-01T08:00:36.498Z,89.72
2018-01-01T08:01:36.492Z,88.01
2018-01-01T08:02:36.487Z,88.10
2018-01-01T08:03:36.482Z,88.29
2018-01-01T08:04:36.475Z,88.01
2018-01-01T08:05:36.470Z,87.05
2018-01-01T08:06:36.465Z,89.28
2018-01-01T08:07:36.459Z,90.38
2018-01-01T08:08:36.453Z,88.86
2018-01-01T08:09:36.447Z,91.47
2018-01-01T08:10:36.441Z,90.71
2018-01-01T08:11:36.436Z,90.99
2018-01-01T08:12:36.429Z,89.76
2018-01-01T08:13:36.424Z,89.95
2018-01-01T08:14:36.419Z,90.23
2018-01-01T08:15:36.413Z,90.71
2018-01-01T08:16:36.406Z,90.71
2018-01-01T08:17:36.402Z,90.71
2018-01-01T08:18:36.397Z,90.80
2018-01-01T08:19:36.396Z,93.56
2018-01-01T08:20:36.385Z,91.38
2018-01-01T08:21:36.381Z,91.56
2018-01-01T08:22:36.379Z,92.99
2018-01-01T08:23:36.370Z,91.28
2018-01-01T08:24:36.363Z,92.32
2018-01-01T08:25:36.357Z,91.66
2018-01-01T08:26:36.352Z,90.90
2018-01-01T08:27:36.347Z,90.71
2018-01-01T08:28:36.340Z,91.19
2018-01-01T08:29:36.337Z,91.85
2018-01-01T08:30:36.331Z,91.75
2018-01-01T08:31:36.325Z,90.90
2018-01-01T08:32:36.320Z,90.71
2018-01-01T08:33:36.315Z,91.19
2018-01-01T08:34:36.310Z,91.09
2018-01-01T08:35:36.305Z,90.71
2018-01-01T08:36:36.298Z,91.94
2018-01-01T08:37:36.291Z,91.94
2018-01-01T08:38:36.287Z,91.75
2018-01-01T08:39:36.281Z,92.13
2018-01-01T08:40:36.275Z,90.71
2018-01-01T08:41:36.274Z,93.37
2018-01-01T08:42:36.266Z,93.08
2018-01-01T08:43:36.262Z,92.51
2018-01-01T08:44:36.255Z,92.61
2018-01-01T08:45:36.249Z,91.38
2018-01-01T08:46:36.245Z,90.71
2018-01-01T08:47:36.240Z,90.90
2018-01-01T08:48:36.233Z,91.66
2018-01-01T08:49:36.227Z,91.47
2018-01-01T08:50:36.222Z,90.71
2018-01-01T08:51:36.218Z,92.51
2018-01-01T08:52:36.235Z,91.38
2018-01-01T08:53:36.206Z,91.09
2018-01-01T08:54:36.202Z,91.94
2018-01-01T08:55:36.197Z,91.28
2018-01-01T08:56:36.192Z,90.99
2018-01-01T08:57:36.185Z,90.23
2018-01-01T08:58:36.181Z,90.90
2018-01-01T08:59:36.176Z,91.47
2018-01-01T09:00:36.169Z,91.66
2018-01-01T09:01:36.165Z,91.94
2018-01-01T09:02:36.159Z,92.42
2018-01-01T09:03:36.154Z,91.09
2018-01-01T09:04:36.147Z,91.38
2018-01-01T09:05:36.143Z,91.66
2018-01-01T09:06:36.139Z,91.47
2018-01-01T09:07:36.132Z,93.08
2018-01-01T09:08:36.128Z,91.85
2018-01-01T09:09:36.125Z,90.99
2018-01-01T09:10:36.118Z,92.51
2018-01-01T09:11:36.111Z,91.19
2018-01-01T09:12:36.107Z,91.28
2018-01-01T09:13:36.100Z,91.47
2018-01-01T09:14:36.096Z,92.04
2018-01-01T09:15:36.090Z,92.32
2018-01-01T09:16:36.084Z,92.80
2018-01-01T09:17:36.079Z,91.94
2018-01-01T09:18:36.074Z,92.42
2018-01-01T09:19:36.069Z,92.61
2018-01-01T09:20:36.062Z,91.94
2018-01-01T09:21:36.058Z,93.94
2018-01-01T09:22:36.052Z,91.56
2018-01-01T09:23:36.048Z,92.61
2018-01-01T09:24:36.042Z,92.99
2018-01-01T09:25:36.036Z,92.23
2018-01-01T09:26:36.032Z,93.08
2018-01-01T09:27:36.026Z,92.32
2018-01-01T09:28:36.020Z,92.71
2018-01-01T09:29:36.015Z,92.99
2018-01-01T09:30:36.013Z,93.94
2018-01-01T09:31:36.007Z,92.23
2018-01-01T09:32:36.000Z,94.03
2018-01-01T09:33:35.995Z,93.94
2018-01-01T09:34:35.990Z,94.08
2018-01-01T09:35:35.986Z,94.37
2018-01-01T09:36:35.979Z,95.17
2018-01-01T09:37:35.974Z,94.37
2018-01-01T09:38:35.969Z,93.32
2018-01-01T09:39:36.011Z,94.51
2018-01-01T09:40:35.959Z,93.46
2018-01-01T09:41:35.954Z,93.46
2018-01-01T09:42:35.949Z,93.89
2018-01-01T09:43:35.946Z,95.60
2018-01-01T09:44:35.940Z,94.93
2018-01-01T09:45:35.935Z,95.03
2018-01-01T09:46:35.929Z,95.03
2018-01-01T09:47:35.924Z,95.89
2018-01-01T09:48:35.920Z,95.03
2018-01-01T09:49:35.914Z,95.51
2018-01-01T09:50:35.909Z,98.55
2018-01-01T09:51:35.906Z,96.74
2018-01-01T09:52:35.900Z,96.45
2018-01-01T09:53:35.896Z,97.31
2018-01-01T09:54:35.891Z,96.17
2018-01-01T09:55:35.887Z,95.32
2018-01-01T09:56:35.880Z,95.32
2018-01-01T09:57:35.875Z,95.70
2018-01-01T09:58:35.871Z,97.31
2018-01-01T09:59:35.866Z,98.74
2018-01-01T10:00:35.861Z,97.03
2018-01-01T10:01:35.857Z,97.50
2018-01-01T10:02:35.853Z,97.97
2018-01-01T10:03:35.848Z,97.03
2018-01-01T10:04:35.843Z,96.36
2018-01-01T10:05:35.838Z,97.60
2018-01-01T10:06:35.834Z,96.74
2018-01-01T10:07:35.830Z,97.03
2018-01-01T10:08:35.825Z,97.60
2018-01-01T10:09:35.820Z,96.55
2018-01-01T10:10:35.815Z,96.65
2018-01-01T10:11:35.811Z,96.36
2018-01-01T10:12:35.806Z,97.22
2018-01-01T10:13:35.801Z,95.89
2018-01-01T10:14:35.797Z,96.45
2018-01-01T10:15:35.793Z,95.32
2018-01-01T10:16:35.787Z,96.65
2018-01-01T10:17:35.782Z,96.55
2018-01-01T10:18:35.780Z,96.36
2018-01-01T10:19:35.774Z,96.17
2018-01-01T10:20:35.770Z,96.65
2018-01-01T10:21:35.765Z,97.31
2018-01-01T10:22:35.760Z,96.65
2018-01-01T10:23:35.755Z,95.60
2018-01-01T10:24:35.750Z,96.26
2018-01-01T10:25:35.746Z,97.22
2018-01-01T10:26:35.742Z,97.41
2018-01-01T10:27:35.738Z,97.31
2018-01-01T10:28:35.731Z,96.17
2018-01-01T10:29:35.728Z,96.65
2018-01-01T10:30:35.722Z,96.55
2018-01-01T10:31:35.718Z,95.89
2018-01-01T10:32:35.713Z,96.36
2018-01-01T10:33:35.710Z,96.45
2018-01-01T10:34:35.705Z,96.93
2018-01-01T10:35:35.700Z,96.45
2018-01-01T10:36:35.696Z,95.79
2018-01-01T10:37:35.689Z,95.79
2018-01-01T10:38:35.686Z,96.36
2018-01-01T10:39:35.682Z,96.08
2018-01-01T10:40:35.676Z,96.84
2018-01-01T10:41:35.672Z,96.65
2018-01-01T10:42:35.668Z,96.88
2018-01-01T10:43:35.662Z,95.98
2018-01-01T10:44:35.657Z,95.60
2018-01-01T10:45:35.653Z,96.84
2018-01-01T10:46:35.648Z,95.79
2018-01-01T10:47:35.645Z,95.98
2018-01-01T10:48:35.638Z,96.65
2018-01-01T10:49:35.635Z,96.55
2018-01-01T10:50:35.629Z,96.84
2018-01-01T10:51:35.626Z,96.74
2018-01-01T10:52:35.621Z,96.74
2018-01-01T10:53:35.615Z,96.45
2018-01-01T10:54:35.611Z,96.84
2018-01-01T10:55:35.606Z,97.97
2018-01-01T10:56:35.607Z,96.74
2018-01-01T10:57:35.596Z,96.26
2018-01-01T10:58:35.592Z,96.93
2018-01-01T10:59:35.587Z,96.65
2018-01-01T11:00:35.583Z,96.93
2018-01-01T11:01:35.578Z,96.26
2018-01-01T11:02:35.573Z,96.93
2018-01-01T11:03:35.569Z,96.93
2018-01-01T11:04:35.564Z,95.03
2018-01-01T11:05:35.613Z,96.45
2018-01-01T11:06:35.554Z,96.84
2018-01-01T11:07:35.550Z,96.55
2018-01-01T11:08:35.545Z,96.36
2018-01-01T11:09:35.541Z,95.70
2018-01-01T11:10:35.536Z,96.84
2018-01-01T11:11:35.535Z,96.45
2018-01-01T11:12:35.525Z,96.36
2018-01-01T11:13:35.521Z,95.70
2018-01-01T11:14:35.517Z,96.65
2018-01-01T11:15:35.514Z,96.26
2018-01-01T11:16:35.518Z,96.26
2018-01-01T11:17:35.503Z,96.45
2018-01-01T11:18:35.499Z,95.70
2018-01-01T11:19:35.495Z,96.26
2018-01-01T11:20:35.489Z,96.26
2018-01-01T11:21:35.484Z,96.74
2018-01-01T11:22:35.481Z,95.12
2018-01-01T11:23:35.475Z,96.45
2018-01-01T11:24:35.472Z,96.65
2018-01-01T11:25:35.467Z,96.65
2018-01-01T11:26:35.461Z,96.65
2018-01-01T11:27:35.456Z,96.36
2018-01-01T11:28:35.452Z,96.36
2018-01-01T11:29:35.447Z,95.79
2018-01-01T11:30:35.444Z,95.70
2018-01-01T11:31:35.442Z,96.93
2018-01-01T11:32:35.435Z,96.26
2018-01-01T11:33:35.430Z,96.60
2018-01-01T11:34:35.424Z,95.70
2018-01-01T11:35:35.420Z,96.74
2018-01-01T11:36:35.415Z,96.45
2018-01-01T11:37:35.411Z,96.89
2018-01-01T11:38:35.406Z,96.36
2018-01-01T11:39:35.403Z,96.55
2018-01-01T11:40:35.398Z,96.45
2018-01-01T11:41:35.394Z,96.55
2018-01-01T11:42:35.391Z,96.08
2018-01-01T11:43:35.384Z,97.12
2018-01-01T11:44:35.388Z,96.84
2018-01-01T11:45:35.375Z,97.12
2018-01-01T11:46:35.371Z,96.12
2018-01-01T11:47:35.367Z,97.31
2018-01-01T11:48:35.362Z,96.60
2018-01-01T11:49:35.358Z,96.79
2018-01-01T11:50:35.353Z,97.60
2018-01-01T11:51:35.348Z,96.60
2018-01-01T11:52:35.344Z,97.22
2018-01-01T11:53:35.342Z,96.31
2018-01-01T11:54:35.335Z,97.17
2018-01-01T11:55:35.337Z,97.45
2018-01-01T11:56:35.326Z,96.69
2018-01-01T11:57:35.323Z,96.69
2018-01-01T11:58:35.318Z,97.08
2018-01-01T11:59:35.315Z,97.83
2018-01-01T12:00:35.309Z,97.36
2018-01-01T12:01:35.305Z,96.60
2018-01-01T12:02:35.301Z,97.36
2018-01-01T12:03:35.298Z,96.79
2018-01-01T12:04:35.292Z,96.41
2018-01-01T12:05:35.308Z,97.64
2018-01-01T12:06:35.284Z,96.89
2018-01-01T12:07:35.279Z,96.69
2018-01-01T12:08:35.275Z,97.17
2018-01-01T12:09:35.270Z,97.08
2018-01-01T12:10:35.267Z,97.45
2018-01-01T12:11:35.262Z,96.79
2018-01-01T12:12:35.260Z,97.64
2018-01-01T12:13:35.253Z,97.64
2018-01-01T12:14:35.251Z,97.45
2018-01-01T12:15:35.245Z,97.93
2018-01-01T12:16:35.241Z,96.98
2018-01-01T12:17:35.236Z,97.27
2018-01-01T12:18:35.233Z,97.08
2018-01-01T12:19:35.229Z,96.89
2018-01-01T12:20:35.223Z,97.27
2018-01-01T12:21:35.219Z,97.17
2018-01-01T12:22:35.217Z,96.89
2018-01-01T12:23:35.219Z,96.79
2018-01-01T12:24:35.208Z,97.83
2018-01-01T12:25:35.203Z,97.55
2018-01-01T12:26:35.198Z,97.55
2018-01-01T12:27:35.194Z,97.08
2018-01-01T12:28:35.189Z,97.93
2018-01-01T12:29:35.186Z,97.27
2018-01-01T12:30:35.182Z,97.93
2018-01-01T12:31:35.179Z,97.74
2018-01-01T12:32:35.173Z,97.64
2018-01-01T12:33:35.168Z,97.36
2018-01-01T12:34:35.164Z,97.83
2018-01-01T12:35:35.160Z,97.64
2018-01-01T12:36:35.159Z,97.83
2018-01-01T12:37:35.152Z,97.08
2018-01-01T12:38:35.148Z,97.74
2018-01-01T12:39:35.143Z,98.97
2018-01-01T12:40:35.138Z,97.83
2018-01-01T12:41:35.135Z,97.64
2018-01-01T12:42:35.131Z,98.03
2018-01-01T12:43:35.126Z,96.89
2018-01-01T12:44:35.121Z,97.36
2018-01-01T12:45:35.120Z,97.64
2018-01-01T12:46:35.113Z,97.74
2018-01-01T12:47:35.110Z,97.45
2018-01-01T12:48:35.105Z,97.83
2018-01-01T12:49:35.101Z,97.74
2018-01-01T12:50:35.098Z,97.64
2018-01-01T12:51:35.094Z,97.64
2018-01-01T12:52:35.090Z,97.64